createdAt,value
2019-05-01T12:12:04.043Z,44.70
2019-05-01T12:15:56.538Z,49.18
2019-05-01T12:18:26.411Z,46.95
2019-05-01T12:20:56.750Z,48.60
2019-05-01T12:23:26.639Z,49.30
2019-05-01T12:25:56.757Z,46.13
2019-05-01T12:28:26.467Z,46.80
2019-05-01T12:30:56.385Z,45.95
2019-05-01T12:33:26.297Z,48.80
2019-05-01T12:35:58.264Z,44.57
2019-05-01T12:38:29.453Z,45.30
2019-05-01T12:41:17.371Z,46.33
2019-05-01T12:43:47.249Z,46.45
2019-05-01T12:46:35.305Z,44.77
2019-05-01T12:49:05.601Z,45.03
2019-05-01T12:51:36.125Z,44.83
2019-05-01T12:54:23.870Z,46.58
2019-05-01T12:57:03.240Z,46.25
2019-05-01T12:59:33.033Z,47.00
2019-05-01T13:02:02.969Z,46.88
2019-05-01T13:04:32.842Z,43.83
2019-05-01T13:07:03.156Z,45.67
2019-05-01T13:09:33.160Z,43.08
2019-05-01T13:12:03.097Z,42.95
2019-05-01T13:14:32.633Z,44.50
2019-05-01T13:17:02.477Z,42.43
2019-05-01T13:19:32.415Z,42.77
2019-05-01T13:22:05.279Z,42.73
2019-05-01T13:24:35.842Z,44.18
2019-05-01T13:27:09.929Z,44.00
2019-05-01T13:29:44.097Z,42.85
2019-05-01T13:32:27.813Z,40.90
2019-05-01T13:34:57.639Z,41.13
2019-05-01T13:37:27.165Z,44.00
2019-05-01T13:39:57.096Z,41.80
2019-05-01T13:42:26.962Z,43.40
2019-05-01T13:44:56.510Z,43.97
2019-05-01T13:47:26.426Z,43.40
2019-05-01T13:49:56.299Z,42.77
2019-05-01T13:52:25.847Z,40.37
2019-05-01T13:54:56.029Z,40.30
2019-05-01T13:57:25.764Z,41.15
2019-05-01T13:59:55.786Z,42.10
2019-05-01T14:02:25.604Z,39.75
2019-05-01T14:04:56.314Z,41.95
2019-05-01T14:07:27.095Z,42.25
2019-05-01T14:12:25.554Z,41.73
2019-05-01T14:14:55.125Z,38.67
2019-05-01T14:17:25.046Z,40.12
2019-05-01T14:20:05.460Z,40.40
2019-05-01T14:22:51.729Z,41.65
2019-05-01T14:25:22.085Z,39.80
2019-05-01T14:27:52.161Z,41.90
2019-05-01T14:30:22.216Z,40.40
2019-05-01T14:32:52.009Z,40.78
2019-05-01T14:35:21.974Z,39.20
2019-05-01T14:37:51.827Z,40.10
2019-05-01T14:40:21.834Z,38.23
2019-05-01T14:42:52.089Z,39.92
2019-05-01T14:45:23.312Z,38.50
2019-05-01T14:47:54.016Z,37.48
2019-05-01T14:50:23.926Z,39.85
2019-05-01T14:52:53.755Z,38.65
2019-05-01T14:55:23.673Z,37.77
2019-05-01T14:57:53.585Z,38.53
2019-05-01T15:00:23.762Z,38.33
2019-05-01T15:02:53.426Z,39.35
2019-05-01T15:05:23.354Z,38.08
2019-05-01T15:07:53.249Z,40.23
2019-05-01T15:10:23.161Z,39.07
2019-05-01T15:12:54.767Z,39.60
2019-05-01T15:15:35.086Z,39.55
2019-05-01T15:18:22.998Z,38.28
2019-05-01T15:20:52.798Z,38.78
2019-05-01T15:23:22.642Z,38.23
2019-05-01T15:25:52.583Z,40.30
2019-05-01T15:28:22.481Z,40.60
2019-05-01T15:30:52.785Z,42.30
2019-05-01T15:33:22.690Z,39.90
2019-05-01T15:35:52.253Z,39.27
2019-05-01T15:38:22.141Z,39.10
2019-05-01T15:40:59.795Z,38.27
2019-05-01T15:43:30.716Z,38.23
2019-05-01T15:46:00.471Z,38.75
2019-05-01T15:48:30.365Z,39.33
2019-05-01T15:50:59.917Z,40.47
2019-05-01T15:53:29.772Z,39.55
2019-05-01T15:55:59.324Z,40.35
2019-05-01T15:58:29.212Z,39.53
2019-05-01T16:00:58.747Z,38.20
2019-05-01T16:03:28.745Z,40.60
2019-05-01T16:05:58.645Z,40.77
2019-05-01T16:08:29.114Z,40.78
2019-05-01T16:11:03.507Z,39.88
2019-05-01T16:13:35.374Z,39.55
2019-05-01T16:16:05.285Z,40.20
2019-05-01T16:18:35.198Z,40.70
2019-05-01T16:21:05.229Z,39.97
2019-05-01T16:23:35.030Z,40.05
2019-05-01T16:26:05.050Z,37.98
2019-05-01T16:28:34.972Z,43.13
2019-05-01T16:31:05.497Z,39.50
2019-05-01T16:33:35.226Z,40.15
2019-05-01T16:36:05.074Z,42.50
2019-05-01T16:38:39.290Z,40.13
2019-05-01T16:41:10.809Z,40.45
2019-05-01T16:43:40.949Z,39.63
2019-05-01T16:46:10.807Z,38.38
2019-05-01T16:48:40.727Z,39.57
2019-05-01T16:51:10.728Z,40.23
2019-05-01T16:53:40.641Z,40.52
2019-05-01T16:56:10.795Z,38.77
2019-05-01T16:58:40.973Z,41.02
2019-05-01T17:01:12.573Z,40.67
2019-05-01T17:03:44.339Z,42.43
2019-05-01T17:06:24.689Z,38.83
2019-05-01T17:08:56.031Z,39.38
2019-05-01T17:11:30.884Z,40.40
2019-05-01T17:14:00.829Z,39.08
2019-05-01T17:16:30.809Z,39.63
2019-05-01T17:19:00.365Z,40.10
2019-05-01T17:21:30.094Z,38.98
2019-05-01T17:24:00.252Z,36.98
2019-05-01T17:26:30.441Z,37.80
2019-05-01T17:29:00.303Z,37.67
2019-05-01T17:31:30.217Z,37.35
2019-05-01T17:34:00.117Z,38.10
2019-05-01T17:36:29.981Z,37.42
2019-05-01T17:38:59.902Z,36.83
2019-05-01T17:41:30.234Z,38.02
2019-05-01T17:43:59.825Z,39.75
2019-05-01T17:46:29.837Z,38.48
2019-05-01T17:49:03.945Z,41.07
2019-05-01T17:51:31.272Z,37.30
2019-05-01T17:54:01.003Z,39.67
2019-05-01T17:56:30.660Z,40.50
2019-05-01T17:59:00.437Z,37.88
2019-05-01T18:01:48.193Z,38.67
2019-05-01T18:04:25.799Z,40.05
2019-05-01T18:06:55.605Z,37.10
2019-05-01T18:09:25.590Z,38.17
2019-05-01T18:11:55.521Z,37.27
2019-05-01T18:14:25.415Z,37.60
2019-05-01T18:17:03.400Z,37.53
2019-05-01T18:19:32.979Z,37.75
2019-05-01T18:22:16.690Z,39.60
2019-05-01T18:25:06.374Z,39.60
2019-05-01T18:27:54.438Z,38.78
2019-05-01T18:30:27.194Z,38.88
2019-05-01T18:32:57.272Z,38.92
2019-05-01T18:35:27.008Z,39.40
2019-05-01T18:37:58.567Z,38.50
2019-05-01T18:40:45.225Z,37.15
2019-05-01T18:43:15.289Z,38.53
2019-05-01T18:45:47.865Z,38.60
2019-05-01T18:48:17.959Z,38.50
2019-05-01T18:50:49.597Z,39.60
2019-05-01T18:53:20.676Z,38.28
2019-05-01T18:58:19.115Z,39.63
2019-05-01T19:00:49.314Z,42.10
2019-05-01T19:03:19.006Z,40.88
2019-05-01T19:05:48.909Z,40.60
2019-05-01T19:08:18.962Z,43.98
2019-05-01T19:10:48.737Z,42.70
2019-05-01T19:13:18.732Z,43.02
2019-05-01T19:15:48.587Z,42.45
2019-05-01T19:18:18.614Z,42.78
2019-05-01T19:20:58.972Z,41.73
2019-05-01T19:23:22.177Z,43.95
2019-05-01T19:25:51.159Z,42.23
2019-05-01T19:28:21.349Z,43.17
2019-05-01T19:30:50.901Z,44.53
2019-05-01T19:33:20.920Z,42.95
2019-05-01T19:35:50.822Z,43.47
2019-05-01T19:38:21.632Z,43.65
2019-05-01T19:43:20.158Z,40.67
2019-05-01T19:45:50.061Z,45.05
2019-05-01T19:48:19.915Z,45.07
2019-05-01T19:50:49.649Z,45.17
2019-05-01T19:53:19.770Z,44.30
2019-05-01T19:55:49.676Z,44.77
2019-05-01T19:58:19.646Z,43.35
2019-05-01T20:00:53.072Z,42.53
2019-05-01T20:03:23.167Z,45.20
2019-05-01T20:05:53.112Z,43.38
2019-05-01T20:08:23.011Z,46.10
2019-05-01T20:10:52.820Z,44.65
2019-05-01T20:13:22.461Z,44.42
2019-05-01T20:15:52.442Z,45.63
2019-05-01T20:18:22.425Z,42.87
2019-05-01T20:20:52.079Z,44.27
2019-05-01T20:23:26.059Z,44.42
2019-05-01T20:25:55.952Z,46.60
2019-05-01T20:28:25.203Z,45.08
2019-05-01T20:30:55.157Z,44.38
2019-05-01T20:33:25.433Z,44.30
2019-05-01T20:35:55.361Z,48.83
2019-05-01T20:38:25.273Z,46.73
2019-05-01T20:40:55.189Z,46.30
2019-05-01T20:43:25.114Z,46.60
2019-05-01T20:45:55.156Z,45.90
2019-05-01T20:48:25.433Z,45.33
2019-05-01T20:50:55.367Z,44.93
2019-05-01T20:53:25.212Z,44.23
2019-05-01T20:55:56.734Z,46.83
2019-05-01T20:58:26.630Z,46.68
2019-05-01T21:00:58.309Z,46.37
2019-05-01T21:03:28.106Z,44.10
2019-05-01T21:06:16.300Z,44.13
2019-05-01T21:08:50.084Z,44.20
2019-05-01T21:11:27.781Z,45.30
2019-05-01T21:14:15.143Z,44.90
2019-05-01T21:16:32.928Z,45.80
2019-05-01T21:19:00.416Z,46.02
2019-05-01T21:21:30.312Z,45.15
2019-05-01T21:24:00.220Z,46.47
2019-05-01T21:26:30.105Z,46.70
2019-05-01T21:29:00.007Z,46.20
2019-05-01T21:31:29.941Z,44.27
2019-05-01T21:33:59.820Z,46.70
2019-05-01T21:36:29.773Z,47.33
2019-05-01T21:38:59.650Z,33.30
2019-05-01T21:41:29.186Z,45.10
2019-05-01T21:43:59.077Z,43.75
2019-05-01T21:46:28.642Z,45.95
2019-05-01T21:48:58.687Z,47.58
2019-05-01T21:51:28.438Z,45.30
2019-05-01T21:53:58.323Z,42.93
2019-05-01T21:56:27.878Z,42.38
2019-05-01T21:58:59.552Z,42.73
2019-05-01T22:01:30.269Z,43.63
2019-05-01T22:04:01.270Z,43.83
2019-05-01T22:06:30.831Z,44.40
2019-05-01T22:09:00.692Z,44.83
2019-05-01T22:11:32.959Z,45.63
2019-05-01T22:14:02.710Z,43.05
2019-05-01T22:16:32.853Z,43.10
2019-05-01T22:19:13.085Z,45.08
2019-05-01T22:22:00.772Z,42.88
2019-05-01T22:24:33.119Z,43.90
2019-05-01T22:27:05.497Z,42.95
2019-05-01T22:29:39.710Z,44.13
2019-05-01T22:32:11.887Z,42.98
2019-05-01T22:34:46.199Z,43.63
2019-05-01T22:37:16.160Z,43.55
2019-05-01T22:39:47.674Z,43.20
2019-05-01T22:42:17.699Z,44.40
2019-05-01T22:44:47.504Z,46.77
2019-05-01T22:47:17.481Z,44.38
2019-05-01T22:49:47.345Z,45.60
2019-05-01T22:52:17.256Z,46.40
2019-05-01T22:54:48.929Z,45.50
2019-05-01T22:57:20.375Z,44.65
2019-05-01T22:59:50.296Z,47.78
2019-05-01T23:02:34.120Z,46.00
2019-05-01T23:05:06.073Z,47.40
2019-05-01T23:07:35.993Z,46.13
2019-05-01T23:10:07.664Z,46.67
2019-05-01T23:12:37.513Z,46.63
2019-05-01T23:15:10.121Z,45.63
2019-05-01T23:17:46.794Z,44.20
2019-05-01T23:20:17.283Z,46.25
2019-05-01T23:22:47.024Z,45.73
2019-05-01T23:25:16.864Z,49.70
2019-05-01T23:27:46.413Z,48.08
2019-05-01T23:30:18.277Z,48.63
2019-05-01T23:32:47.831Z,46.42
2019-05-01T23:35:17.761Z,47.98
2019-05-01T23:37:47.729Z,47.70
2019-05-01T23:40:17.946Z,48.83
2019-05-01T23:42:52.396Z,46.83
2019-05-01T23:45:19.129Z,47.17
2019-05-01T23:47:49.031Z,47.23
2019-05-01T23:50:18.964Z,50.00
2019-05-01T23:52:48.797Z,48.38
2019-05-01T23:55:18.718Z,50.33
2019-05-01T23:57:48.637Z,49.20
